Date,TemperatureHighF,TemperatureAvgF,TemperatureLowF,DewpointHighF,DewpointAvgF,DewpointLowF,HumidityHigh,HumidityAvg,HumidityLow,PressureMaxIn,PressureMinIn,WindSpeedMaxMPH,WindSpeedAvgMPH,GustSpeedMaxMPH,PrecipitationSumIn
2013-2-1,31.6,22.9,3.7,14.6,8.2,-0.4,86,55,32,30.30,30.06,8,4,11,0.00
2013-2-2,48.4,42.6,25.9,31.9,28.0,17.1,75,57,42,30.03,29.96,15,8,24,0.00
2013-2-3,54.9,42.7,33.8,30.8,19.0,7.3,79,41,16,30.09,29.91,19,8,23,0.00
2013-2-4,62.2,47.5,28.0,37.2,28.5,22.1,92,50,27,29.81,29.67,16,9,16,0.00
2013-2-5,62.4,42.8,24.4,36.3,27.0,21.7,99,61,22,29.95,29.77,15,4,15,0.00
2013-2-6,60.8,45.2,30.0,34.8,30.0,26.9,92,59,29,30.02,29.85,15,6,15,0.00
2013-2-7,54.7,45.8,38.8,51.3,41.7,34.6,99,86,66,29.94,29.73,14,6,14,0.43
2013-2-8,42.3,34.0,27.7,37.0,30.5,26.2,99,87,67,30.17,29.95,11,5,11,0.00
2013-2-9,46.9,37.9,29.3,36.8,30.3,25.6,99,76,49,30.10,29.74,14,9,19,0.26
2013-2-10,63.0,52.9,37.4,55.3,39.5,20.4,99,69,22,29.74,29.46,22,14,32,0.48
2013-2-11,52.2,50.1,48.6,23.8,21.6,19.9,37,32,28,29.96,29.94,10,7,11,0.60
2013-2-12,45.1,35.3,27.1,33.0,27.4,22.3,99,75,48,30.00,29.81,8,3,8,0.11
2013-2-13,46.9,36.8,30.4,36.9,33.0,30.1,99,87,65,29.81,29.73,18,5,18,0.50
2013-2-14,56.3,44.2,35.8,33.7,29.3,22.7,75,57,31,29.96,29.73,14,7,14,0.00
2013-2-15,41.5,34.3,24.4,30.0,16.1,1.1,79,50,18,30.14,29.97,14,7,14,0.00
2013-2-16,39.0,31.3,19.0,21.1,15.3,8.3,95,54,31,30.13,30.00,11,5,14,0.00
2013-2-17,64.2,50.2,28.4,25.1,19.6,15.4,65,32,16,29.97,29.74,14,7,17,0.00
2013-2-18,56.8,44.9,39.6,50.3,39.6,31.6,99,82,61,29.69,29.42,19,13,25,0.15
2013-2-19,27.3,26.6,25.9,19.8,18.8,18.1,73,72,72,29.93,29.91,12,9,12,0.00
2013-2-20,31.3,25.1,19.9,11.9,7.3,4.3,58,47,36,30.18,30.01,9,4,9,0.00
2013-2-21,31.8,28.0,25.0,31.6,23.8,12.1,99,86,51,30.02,29.59,17,2,17,0.00
2013-2-22,32.7,27.2,21.9,32.5,23.6,20.3,99,86,69,29.91,29.64,0,0,0,0.13
2013-2-23,41.2,32.5,16.5,24.1,20.3,15.9,98,62,39,29.92,29.81,8,2,11,0.02
2013-2-24,54.1,43.0,19.9,31.8,26.2,17.9,96,55,35,29.91,29.78,10,6,14,0.00
2013-2-25,46.8,36.2,29.1,34.1,28.1,21.7,99,75,38,29.81,29.31,17,8,17,0.66
2013-2-26,34.3,32.4,30.9,33.7,32.1,30.7,99,99,96,29.63,29.19,13,6,13,0.27
2013-2-27,34.2,31.0,29.5,30.8,29.2,26.5,99,93,86,29.83,29.63,19,10,19,0.01
2013-2-28,32.0,29.9,28.6,26.9,26.4,25.6,91,87,81,29.99,29.81,15,8,15,0.00